VA39 weather

Fort Lee AHP 3(Qrtmst Cen) Heliport
Fort Lee, Virginia, United States

Public forecast

Using degrees Fahrenheit for public forecast. Weather courtesy of forecast.io.

Closest aviation weather report (METAR) to Fort Lee AHP 3(Qrtmst Cen) Heliport

Closest report is Dinwiddie County Airport, 9.2 nm (17.1 km) WSW. Retrieved 2020/01/25 01:35 UTC (0 seconds ago):

KPTB 250135Z AUTO 10006KT 10SM OVC090 13/09 A3003 RMK AO2 T01290091

Closest aviation forecast (TAF) to Fort Lee AHP 3(Qrtmst Cen) Heliport

Closest forecast is Richmond International Airport, 15.3 nm (28.4 km) N. Retrieved 2020-01-25 00:34 UTC (57 minutes ago):

TAF KRIC 242332Z 2500/2524 11009KT P6SM BKN050 BKN100 FM250300 12011KT P6SM -SHRA OVC020 TEMPO 2503/2506 SCT020 BKN035 FM250900 15011KT 3SM SHRA OVC015 WS015/15045KT FM251300 21006KT P6SM OVC015 FM251600 24007KT P6SM SCT025 BKN040 FM252000 28009KT P6SM BKN120